Terminal Aerodrome Forecast
Issued by NWS

Home | Current Version | Previous Version | Text Only | Print | Product List | Glossary On
Versions: 1 2 3 4 5 6 7 8 9 10 11 12 13 14 15 16 17
395
FTUS44 KTSA 292327
TAFFYV
TAF
KFYV 292327Z 3000/3024 22009KT P6SM BKN060
     FM301200 23014G21KT P6SM OVC015=

USA.gov is the U.S. government's official web portal to all federal, state and local government web resources and services.